sensor_id;sensor_type;location;lat;lon;timestamp;temperature;humidity
31129;DHT22;17777;48.770;8.944;2023-04-15T00:00:10;12.00;40.10
31129;DHT22;17777;48.770;8.944;2023-04-15T00:02:40;12.00;40.10
31129;DHT22;17777;48.770;8.944;2023-04-15T00:05:06;12.00;40.10
31129;DHT22;17777;48.770;8.944;2023-04-15T00:07:32;11.90;40.10
31129;DHT22;17777;48.770;8.944;2023-04-15T00:09:58;11.90;40.00
31129;DHT22;17777;48.770;8.944;2023-04-15T00:12:25;11.90;40.10
31129;DHT22;17777;48.770;8.944;2023-04-15T00:14:51;11.90;40.20
31129;DHT22;17777;48.770;8.944;2023-04-15T00:17:17;11.80;40.10
31129;DHT22;17777;48.770;8.944;2023-04-15T00:19:43;11.80;40.20
31129;DHT22;17777;48.770;8.944;2023-04-15T00:22:10;11.80;40.30
31129;DHT22;17777;48.770;8.944;2023-04-15T00:24:37;11.70;40.30
31129;DHT22;17777;48.770;8.944;2023-04-15T00:27:03;11.70;40.30
31129;DHT22;17777;48.770;8.944;2023-04-15T00:29:29;11.70;40.40
31129;DHT22;17777;48.770;8.944;2023-04-15T00:31:55;11.60;40.40
31129;DHT22;17777;48.770;8.944;2023-04-15T00:34:24;11.60;40.40
31129;DHT22;17777;48.770;8.944;2023-04-15T00:36:52;11.60;40.40
31129;DHT22;17777;48.770;8.944;2023-04-15T00:39:18;11.60;40.40
31129;DHT22;17777;48.770;8.944;2023-04-15T00:41:46;11.60;40.50
31129;DHT22;17777;48.770;8.944;2023-04-15T00:44:12;11.50;40.50
31129;DHT22;17777;48.770;8.944;2023-04-15T00:46:38;11.50;40.50
31129;DHT22;17777;48.770;8.944;2023-04-15T00:49:05;11.50;40.50
31129;DHT22;17777;48.770;8.944;2023-04-15T00:51:32;11.40;40.60
31129;DHT22;17777;48.770;8.944;2023-04-15T00:54:02;11.40;40.60
31129;DHT22;17777;48.770;8.944;2023-04-15T00:56:29;11.40;40.70
31129;DHT22;17777;48.770;8.944;2023-04-15T00:58:56;11.30;40.70
31129;DHT22;17777;48.770;8.944;2023-04-15T01:01:24;11.30;40.80
31129;DHT22;17777;48.770;8.944;2023-04-15T01:03:50;11.20;40.80
31129;DHT22;17777;48.770;8.944;2023-04-15T01:06:17;11.20;40.80
31129;DHT22;17777;48.770;8.944;2023-04-15T01:08:43;11.20;40.90
31129;DHT22;17777;48.770;8.944;2023-04-15T01:11:13;11.10;41.00
31129;DHT22;17777;48.770;8.944;2023-04-15T01:13:39;11.10;41.10
31129;DHT22;17777;48.770;8.944;2023-04-15T01:16:07;11.10;41.30
31129;DHT22;17777;48.770;8.944;2023-04-15T01:18:35;11.10;41.30
31129;DHT22;17777;48.770;8.944;2023-04-15T01:21:03;11.00;41.30
31129;DHT22;17777;48.770;8.944;2023-04-15T01:23:30;11.00;41.90
31129;DHT22;17777;48.770;8.944;2023-04-15T01:25:58;11.00;41.40
31129;DHT22;17777;48.770;8.944;2023-04-15T01:28:24;11.00;41.40
31129;DHT22;17777;48.770;8.944;2023-04-15T01:31:04;11.00;41.40
31129;DHT22;17777;48.770;8.944;2023-04-15T01:33:38;11.00;42.00
31129;DHT22;17777;48.770;8.944;2023-04-15T01:36:06;10.90;41.40
31129;DHT22;17777;48.770;8.944;2023-04-15T01:38:36;10.90;41.40
31129;DHT22;17777;48.770;8.944;2023-04-15T01:41:03;10.90;41.50
31129;DHT22;17777;48.770;8.944;2023-04-15T01:43:29;10.90;41.50
31129;DHT22;17777;48.770;8.944;2023-04-15T01:45:55;10.80;41.50
31129;DHT22;17777;48.770;8.944;2023-04-15T01:48:21;10.80;41.50
31129;DHT22;17777;48.770;8.944;2023-04-15T01:50:47;10.80;41.60
31129;DHT22;17777;48.770;8.944;2023-04-15T01:53:13;10.80;41.60
31129;DHT22;17777;48.770;8.944;2023-04-15T01:55:40;10.80;41.70
31129;DHT22;17777;48.770;8.944;2023-04-15T01:58:06;10.70;42.30
31129;DHT22;17777;48.770;8.944;2023-04-15T02:00:32;10.70;41.80
31129;DHT22;17777;48.770;8.944;2023-04-15T02:02:58;10.70;41.80
31129;DHT22;17777;48.770;8.944;2023-04-15T02:05:24;10.60;41.80
31129;DHT22;17777;48.770;8.944;2023-04-15T02:07:51;10.70;41.90
31129;DHT22;17777;48.770;8.944;2023-04-15T02:10:16;10.60;41.90
31129;DHT22;17777;48.770;8.944;2023-04-15T02:12:42;10.60;41.80
31129;DHT22;17777;48.770;8.944;2023-04-15T02:15:09;10.60;41.90
31129;DHT22;17777;48.770;8.944;2023-04-15T02:17:36;10.60;41.80
31129;DHT22;17777;48.770;8.944;2023-04-15T02:20:02;10.60;42.00
31129;DHT22;17777;48.770;8.944;2023-04-15T02:22:33;10.60;41.90
31129;DHT22;17777;48.770;8.944;2023-04-15T02:24:59;10.50;41.90
31129;DHT22;17777;48.770;8.944;2023-04-15T02:27:25;10.50;41.90
31129;DHT22;17777;48.770;8.944;2023-04-15T02:29:52;10.50;41.90
31129;DHT22;17777;48.770;8.944;2023-04-15T02:32:18;10.50;41.90
31129;DHT22;17777;48.770;8.944;2023-04-15T02:34:45;10.50;42.00
31129;DHT22;17777;48.770;8.944;2023-04-15T02:37:13;10.40;42.00
31129;DHT22;17777;48.770;8.944;2023-04-15T02:39:38;10.40;42.10
31129;DHT22;17777;48.770;8.944;2023-04-15T02:42:04;10.40;42.10
31129;DHT22;17777;48.770;8.944;2023-04-15T02:44:31;10.30;42.10
31129;DHT22;17777;48.770;8.944;2023-04-15T02:47:00;10.30;42.20
31129;DHT22;17777;48.770;8.944;2023-04-15T02:49:26;10.30;42.20
31129;DHT22;17777;48.770;8.944;2023-04-15T02:51:54;10.30;42.20
31129;DHT22;17777;48.770;8.944;2023-04-15T02:54:21;10.30;42.30
31129;DHT22;17777;48.770;8.944;2023-04-15T02:56:50;10.20;42.30
31129;DHT22;17777;48.770;8.944;2023-04-15T02:59:19;10.20;42.40
31129;DHT22;17777;48.770;8.944;2023-04-15T03:01:45;10.20;42.40
31129;DHT22;17777;48.770;8.944;2023-04-15T03:04:11;10.10;42.40
31129;DHT22;17777;48.770;8.944;2023-04-15T03:06:38;10.10;42.50
31129;DHT22;17777;48.770;8.944;2023-04-15T03:09:07;10.10;42.60
31129;DHT22;17777;48.770;8.944;2023-04-15T03:11:35;10.10;42.60
31129;DHT22;17777;48.770;8.944;2023-04-15T03:14:07;10.10;42.60
31129;DHT22;17777;48.770;8.944;2023-04-15T03:16:35;10.10;42.70
31129;DHT22;17777;48.770;8.944;2023-04-15T03:19:01;10.10;42.60
31129;DHT22;17777;48.770;8.944;2023-04-15T03:21:27;10.10;42.70
31129;DHT22;17777;48.770;8.944;2023-04-15T03:23:54;10.10;42.70
31129;DHT22;17777;48.770;8.944;2023-04-15T03:26:26;10.10;42.70
31129;DHT22;17777;48.770;8.944;2023-04-15T03:28:56;10.10;43.00
31129;DHT22;17777;48.770;8.944;2023-04-15T03:31:23;10.10;42.80
31129;DHT22;17777;48.770;8.944;2023-04-15T03:33:49;10.10;42.80
31129;DHT22;17777;48.770;8.944;2023-04-15T03:36:15;10.00;42.80
31129;DHT22;17777;48.770;8.944;2023-04-15T03:38:41;10.00;42.80
31129;DHT22;17777;48.770;8.944;2023-04-15T03:41:07;10.00;42.80
31129;DHT22;17777;48.770;8.944;2023-04-15T03:43:34;10.00;42.90
31129;DHT22;17777;48.770;8.944;2023-04-15T03:46:00;10.00;42.90
31129;DHT22;17777;48.770;8.944;2023-04-15T03:48:26;9.90;42.90
31129;DHT22;17777;48.770;8.944;2023-04-15T03:50:52;9.80;42.90
31129;DHT22;17777;48.770;8.944;2023-04-15T03:53:18;9.80;43.10
31129;DHT22;17777;48.770;8.944;2023-04-15T03:55:45;9.80;43.10
31129;DHT22;17777;48.770;8.944;2023-04-15T03:58:11;9.80;43.10
31129;DHT22;17777;48.770;8.944;2023-04-15T04:00:40;9.80;43.10
31129;DHT22;17777;48.770;8.944;2023-04-15T04:03:07;9.70;43.10
31129;DHT22;17777;48.770;8.944;2023-04-15T04:05:33;9.80;43.20
31129;DHT22;17777;48.770;8.944;2023-04-15T04:08:01;9.70;43.10
31129;DHT22;17777;48.770;8.944;2023-04-15T04:10:27;9.70;43.10
31129;DHT22;17777;48.770;8.944;2023-04-15T04:12:52;9.70;43.10
31129;DHT22;17777;48.770;8.944;2023-04-15T04:15:18;9.70;43.10
31129;DHT22;17777;48.770;8.944;2023-04-15T04:17:44;9.70;43.20
31129;DHT22;17777;48.770;8.944;2023-04-15T04:20:10;9.70;43.20
31129;DHT22;17777;48.770;8.944;2023-04-15T04:22:39;9.70;43.30
31129;DHT22;17777;48.770;8.944;2023-04-15T04:25:06;9.60;43.40
31129;DHT22;17777;48.770;8.944;2023-04-15T04:27:35;9.60;43.30
31129;DHT22;17777;48.770;8.944;2023-04-15T04:30:01;9.60;43.40
31129;DHT22;17777;48.770;8.944;2023-04-15T04:32:27;9.60;43.40
31129;DHT22;17777;48.770;8.944;2023-04-15T04:34:53;9.60;43.50
31129;DHT22;17777;48.770;8.944;2023-04-15T04:37:19;9.50;43.40
31129;DHT22;17777;48.770;8.944;2023-04-15T04:39:45;9.50;43.50
31129;DHT22;17777;48.770;8.944;2023-04-15T04:42:11;9.50;43.50
31129;DHT22;17777;48.770;8.944;2023-04-15T04:44:36;9.50;43.50
31129;DHT22;17777;48.770;8.944;2023-04-15T04:47:02;9.50;43.50
31129;DHT22;17777;48.770;8.944;2023-04-15T04:49:28;9.50;43.50
31129;DHT22;17777;48.770;8.944;2023-04-15T04:51:54;9.50;43.60
31129;DHT22;17777;48.770;8.944;2023-04-15T04:54:19;9.50;43.70
31129;DHT22;17777;48.770;8.944;2023-04-15T04:56:45;9.50;43.70
31129;DHT22;17777;48.770;8.944;2023-04-15T04:59:11;9.50;43.70
31129;DHT22;17777;48.770;8.944;2023-04-15T05:01:37;9.40;43.70
31129;DHT22;17777;48.770;8.944;2023-04-15T05:04:03;9.50;43.80
31129;DHT22;17777;48.770;8.944;2023-04-15T05:06:29;9.50;43.80
31129;DHT22;17777;48.770;8.944;2023-04-15T05:08:55;9.50;43.80
31129;DHT22;17777;48.770;8.944;2023-04-15T05:11:21;9.50;43.80
31129;DHT22;17777;48.770;8.944;2023-04-15T05:13:47;9.50;43.80
31129;DHT22;17777;48.770;8.944;2023-04-15T05:16:12;9.40;43.80
31129;DHT22;17777;48.770;8.944;2023-04-15T05:18:38;9.40;43.80
31129;DHT22;17777;48.770;8.944;2023-04-15T05:21:04;9.40;43.80
31129;DHT22;17777;48.770;8.944;2023-04-15T05:23:31;9.40;43.90
31129;DHT22;17777;48.770;8.944;2023-04-15T05:25:56;9.40;43.90
31129;DHT22;17777;48.770;8.944;2023-04-15T05:28:22;9.40;43.90
31129;DHT22;17777;48.770;8.944;2023-04-15T05:30:48;9.40;44.00
31129;DHT22;17777;48.770;8.944;2023-04-15T05:33:14;9.40;44.10
31129;DHT22;17777;48.770;8.944;2023-04-15T05:35:40;9.40;44.10
31129;DHT22;17777;48.770;8.944;2023-04-15T05:38:06;9.40;44.20
31129;DHT22;17777;48.770;8.944;2023-04-15T05:40:32;9.40;44.20
31129;DHT22;17777;48.770;8.944;2023-04-15T05:42:57;9.40;44.40
31129;DHT22;17777;48.770;8.944;2023-04-15T05:45:23;9.40;44.50
31129;DHT22;17777;48.770;8.944;2023-04-15T05:47:49;9.40;44.60
31129;DHT22;17777;48.770;8.944;2023-04-15T05:50:18;9.50;44.60
31129;DHT22;17777;48.770;8.944;2023-04-15T05:52:44;9.50;44.70
31129;DHT22;17777;48.770;8.944;2023-04-15T05:55:13;9.50;44.80
31129;DHT22;17777;48.770;8.944;2023-04-15T05:57:39;9.50;44.80
31129;DHT22;17777;48.770;8.944;2023-04-15T06:00:05;9.50;44.80
31129;DHT22;17777;48.770;8.944;2023-04-15T06:02:35;9.50;44.90
31129;DHT22;17777;48.770;8.944;2023-04-15T06:05:01;9.50;45.00
31129;DHT22;17777;48.770;8.944;2023-04-15T06:07:28;9.60;45.00
31129;DHT22;17777;48.770;8.944;2023-04-15T06:09:53;9.60;45.10
31129;DHT22;17777;48.770;8.944;2023-04-15T06:12:19;9.70;45.20
31129;DHT22;17777;48.770;8.944;2023-04-15T06:14:45;9.70;45.30
31129;DHT22;17777;48.770;8.944;2023-04-15T06:17:11;9.80;45.50
31129;DHT22;17777;48.770;8.944;2023-04-15T06:19:39;9.80;45.40
31129;DHT22;17777;48.770;8.944;2023-04-15T06:22:05;9.90;45.50
31129;DHT22;17777;48.770;8.944;2023-04-15T06:24:31;9.90;45.50
31129;DHT22;17777;48.770;8.944;2023-04-15T06:26:57;9.90;45.60
31129;DHT22;17777;48.770;8.944;2023-04-15T06:29:23;10.00;45.90
31129;DHT22;17777;48.770;8.944;2023-04-15T06:31:49;10.10;46.10
31129;DHT22;17777;48.770;8.944;2023-04-15T06:34:14;10.10;46.20
31129;DHT22;17777;48.770;8.944;2023-04-15T06:36:40;10.20;46.40
31129;DHT22;17777;48.770;8.944;2023-04-15T06:39:06;10.30;46.40
31129;DHT22;17777;48.770;8.944;2023-04-15T06:41:32;10.50;46.60
31129;DHT22;17777;48.770;8.944;2023-04-15T06:43:58;10.60;46.70
31129;DHT22;17777;48.770;8.944;2023-04-15T06:46:24;10.70;46.70
31129;DHT22;17777;48.770;8.944;2023-04-15T06:48:50;10.90;46.80
31129;DHT22;17777;48.770;8.944;2023-04-15T06:51:16;11.10;46.90
31129;DHT22;17777;48.770;8.944;2023-04-15T06:53:42;11.20;46.80
31129;DHT22;17777;48.770;8.944;2023-04-15T06:56:08;11.40;46.70
31129;DHT22;17777;48.770;8.944;2023-04-15T06:58:35;11.60;46.70
31129;DHT22;17777;48.770;8.944;2023-04-15T07:01:01;11.70;46.50
31129;DHT22;17777;48.770;8.944;2023-04-15T07:03:27;11.90;46.40
31129;DHT22;17777;48.770;8.944;2023-04-15T07:05:53;12.00;46.10
31129;DHT22;17777;48.770;8.944;2023-04-15T07:08:19;12.10;45.90
31129;DHT22;17777;48.770;8.944;2023-04-15T07:10:46;12.30;45.80
31129;DHT22;17777;48.770;8.944;2023-04-15T07:13:12;12.30;45.70
31129;DHT22;17777;48.770;8.944;2023-04-15T07:15:38;12.40;45.40
31129;DHT22;17777;48.770;8.944;2023-04-15T07:18:03;12.50;45.40
31129;DHT22;17777;48.770;8.944;2023-04-15T07:20:29;12.60;45.50
31129;DHT22;17777;48.770;8.944;2023-04-15T07:22:55;12.70;45.50
31129;DHT22;17777;48.770;8.944;2023-04-15T07:25:21;12.70;45.50
31129;DHT22;17777;48.770;8.944;2023-04-15T07:27:47;12.80;45.70
31129;DHT22;17777;48.770;8.944;2023-04-15T07:30:13;12.80;45.60
31129;DHT22;17777;48.770;8.944;2023-04-15T07:32:39;12.90;45.60
31129;DHT22;17777;48.770;8.944;2023-04-15T07:35:05;12.90;45.60
31129;DHT22;17777;48.770;8.944;2023-04-15T07:37:32;13.00;45.60
31129;DHT22;17777;48.770;8.944;2023-04-15T07:39:58;13.00;45.70
31129;DHT22;17777;48.770;8.944;2023-04-15T07:42:23;13.10;45.70
31129;DHT22;17777;48.770;8.944;2023-04-15T07:44:50;13.20;45.90
31129;DHT22;17777;48.770;8.944;2023-04-15T07:47:16;13.20;46.00
31129;DHT22;17777;48.770;8.944;2023-04-15T07:49:42;13.30;46.00
31129;DHT22;17777;48.770;8.944;2023-04-15T07:52:08;13.40;46.00
31129;DHT22;17777;48.770;8.944;2023-04-15T07:54:34;13.50;46.00
31129;DHT22;17777;48.770;8.944;2023-04-15T07:57:00;13.60;45.90
31129;DHT22;17777;48.770;8.944;2023-04-15T07:59:26;13.60;45.70
31129;DHT22;17777;48.770;8.944;2023-04-15T08:01:54;13.70;45.60
31129;DHT22;17777;48.770;8.944;2023-04-15T08:04:20;13.80;45.60
31129;DHT22;17777;48.770;8.944;2023-04-15T08:06:46;13.80;45.60
31129;DHT22;17777;48.770;8.944;2023-04-15T08:09:14;13.90;45.50
31129;DHT22;17777;48.770;8.944;2023-04-15T08:11:40;14.00;45.50
31129;DHT22;17777;48.770;8.944;2023-04-15T08:14:06;14.10;45.60
31129;DHT22;17777;48.770;8.944;2023-04-15T08:16:32;14.20;45.70
31129;DHT22;17777;48.770;8.944;2023-04-15T08:18:58;14.20;45.50
31129;DHT22;17777;48.770;8.944;2023-04-15T08:21:24;14.30;45.50
31129;DHT22;17777;48.770;8.944;2023-04-15T08:23:51;14.40;45.40
31129;DHT22;17777;48.770;8.944;2023-04-15T08:26:19;14.50;45.40
31129;DHT22;17777;48.770;8.944;2023-04-15T08:28:46;14.60;45.40
31129;DHT22;17777;48.770;8.944;2023-04-15T08:31:13;14.70;45.30
31129;DHT22;17777;48.770;8.944;2023-04-15T08:33:39;14.90;45.10
31129;DHT22;17777;48.770;8.944;2023-04-15T08:36:05;15.00;44.80
31129;DHT22;17777;48.770;8.944;2023-04-15T08:38:32;15.10;44.80
31129;DHT22;17777;48.770;8.944;2023-04-15T08:40:59;15.20;44.60
31129;DHT22;17777;48.770;8.944;2023-04-15T08:43:49;15.30;44.30
31129;DHT22;17777;48.770;8.944;2023-04-15T08:46:23;15.40;44.10
31129;DHT22;17777;48.770;8.944;2023-04-15T08:48:49;15.50;44.00
31129;DHT22;17777;48.770;8.944;2023-04-15T08:51:17;15.60;43.60
31129;DHT22;17777;48.770;8.944;2023-04-15T08:53:44;15.70;43.30
31129;DHT22;17777;48.770;8.944;2023-04-15T08:56:13;15.70;43.20
31129;DHT22;17777;48.770;8.944;2023-04-15T08:58:42;15.90;43.10
31129;DHT22;17777;48.770;8.944;2023-04-15T09:01:10;15.90;43.10
31129;DHT22;17777;48.770;8.944;2023-04-15T09:03:38;16.00;42.90
31129;DHT22;17777;48.770;8.944;2023-04-15T09:06:05;16.10;42.70
31129;DHT22;17777;48.770;8.944;2023-04-15T09:08:32;16.10;42.50
31129;DHT22;17777;48.770;8.944;2023-04-15T09:11:00;16.30;42.30
31129;DHT22;17777;48.770;8.944;2023-04-15T09:13:27;16.30;42.30
31129;DHT22;17777;48.770;8.944;2023-04-15T09:15:54;16.40;42.20
31129;DHT22;17777;48.770;8.944;2023-04-15T09:18:34;16.40;42.20
31129;DHT22;17777;48.770;8.944;2023-04-15T09:21:05;16.50;41.70
31129;DHT22;17777;48.770;8.944;2023-04-15T09:23:34;16.60;41.80
31129;DHT22;17777;48.770;8.944;2023-04-15T09:26:04;16.70;41.80
31129;DHT22;17777;48.770;8.944;2023-04-15T09:28:31;16.80;42.40
31129;DHT22;17777;48.770;8.944;2023-04-15T09:31:01;16.90;41.80
31129;DHT22;17777;48.770;8.944;2023-04-15T09:33:28;17.00;41.40
31129;DHT22;17777;48.770;8.944;2023-04-15T09:36:03;17.10;41.40
31129;DHT22;17777;48.770;8.944;2023-04-15T09:38:30;17.10;41.10
31129;DHT22;17777;48.770;8.944;2023-04-15T09:40:57;17.20;41.30
31129;DHT22;17777;48.770;8.944;2023-04-15T09:43:37;17.30;41.20
31129;DHT22;17777;48.770;8.944;2023-04-15T09:46:04;17.30;40.50
31129;DHT22;17777;48.770;8.944;2023-04-15T09:48:30;17.40;40.90
31129;DHT22;17777;48.770;8.944;2023-04-15T09:51:00;17.50;40.80
31129;DHT22;17777;48.770;8.944;2023-04-15T09:53:26;17.50;40.50
31129;DHT22;17777;48.770;8.944;2023-04-15T09:55:55;17.60;40.70
31129;DHT22;17777;48.770;8.944;2023-04-15T09:58:26;17.70;40.60
31129;DHT22;17777;48.770;8.944;2023-04-15T10:00:54;17.70;40.20
31129;DHT22;17777;48.770;8.944;2023-04-15T10:03:27;17.70;40.10
31129;DHT22;17777;48.770;8.944;2023-04-15T10:05:55;17.80;39.70
31129;DHT22;17777;48.770;8.944;2023-04-15T10:08:24;17.80;39.50
31129;DHT22;17777;48.770;8.944;2023-04-15T10:10:52;17.80;39.30
31129;DHT22;17777;48.770;8.944;2023-04-15T10:13:23;17.90;39.20
31129;DHT22;17777;48.770;8.944;2023-04-15T10:16:00;17.90;38.40
31129;DHT22;17777;48.770;8.944;2023-04-15T10:18:34;17.90;38.80
31129;DHT22;17777;48.770;8.944;2023-04-15T10:21:00;18.00;38.70
31129;DHT22;17777;48.770;8.944;2023-04-15T10:23:27;18.00;38.90
31129;DHT22;17777;48.770;8.944;2023-04-15T10:25:53;18.10;38.70
31129;DHT22;17777;48.770;8.944;2023-04-15T10:28:19;18.10;38.60
31129;DHT22;17777;48.770;8.944;2023-04-15T10:30:48;18.10;38.50
31129;DHT22;17777;48.770;8.944;2023-04-15T10:33:16;18.20;38.40
31129;DHT22;17777;48.770;8.944;2023-04-15T10:35:45;18.20;38.30
31129;DHT22;17777;48.770;8.944;2023-04-15T10:41:21;18.20;37.50
31129;DHT22;17777;48.770;8.944;2023-04-15T10:46:33;18.30;37.90
31129;DHT22;17777;48.770;8.944;2023-04-15T10:49:10;18.30;37.50
31129;DHT22;17777;48.770;8.944;2023-04-15T10:51:48;18.30;37.00
31129;DHT22;17777;48.770;8.944;2023-04-15T10:57:34;18.40;36.00
31129;DHT22;17777;48.770;8.944;2023-04-15T11:05:09;18.30;35.90
31129;DHT22;17777;48.770;8.944;2023-04-15T11:10:49;18.30;36.70
31129;DHT22;17777;48.770;8.944;2023-04-15T11:13:04;18.30;36.70
31129;DHT22;17777;48.770;8.944;2023-04-15T11:15:41;18.40;36.20
31129;DHT22;17777;48.770;8.944;2023-04-15T11:18:19;18.40;36.60
31129;DHT22;17777;48.770;8.944;2023-04-15T11:23:39;18.50;36.70
31129;DHT22;17777;48.770;8.944;2023-04-15T11:26:09;18.40;36.30
31129;DHT22;17777;48.770;8.944;2023-04-15T11:28:41;18.50;36.80
31129;DHT22;17777;48.770;8.944;2023-04-15T11:33:36;18.50;36.60
31129;DHT22;17777;48.770;8.944;2023-04-15T11:36:03;18.50;36.50
31129;DHT22;17777;48.770;8.944;2023-04-15T11:38:29;18.50;36.30
31129;DHT22;17777;48.770;8.944;2023-04-15T11:40:56;18.50;36.20
31129;DHT22;17777;48.770;8.944;2023-04-15T11:43:22;18.50;36.20
31129;DHT22;17777;48.770;8.944;2023-04-15T11:45:56;18.60;36.40
31129;DHT22;17777;48.770;8.944;2023-04-15T11:48:29;18.60;36.20
31129;DHT22;17777;48.770;8.944;2023-04-15T11:51:06;18.60;36.50
31129;DHT22;17777;48.770;8.944;2023-04-15T11:53:49;18.60;36.40
31129;DHT22;17777;48.770;8.944;2023-04-15T11:56:25;18.70;36.20
31129;DHT22;17777;48.770;8.944;2023-04-15T11:58:56;18.70;36.10
31129;DHT22;17777;48.770;8.944;2023-04-15T12:03:56;18.80;35.90
31129;DHT22;17777;48.770;8.944;2023-04-15T12:06:24;18.80;36.40
31129;DHT22;17777;48.770;8.944;2023-04-15T12:11:33;18.90;36.40
31129;DHT22;17777;48.770;8.944;2023-04-15T12:16:50;19.00;36.20
31129;DHT22;17777;48.770;8.944;2023-04-15T12:19:38;19.00;36.30
31129;DHT22;17777;48.770;8.944;2023-04-15T12:24:37;19.00;36.00
31129;DHT22;17777;48.770;8.944;2023-04-15T12:27:09;19.10;36.10
31129;DHT22;17777;48.770;8.944;2023-04-15T12:29:38;19.00;35.30
31129;DHT22;17777;48.770;8.944;2023-04-15T12:34:36;19.00;35.10
31129;DHT22;17777;48.770;8.944;2023-04-15T12:37:04;19.00;35.20
31129;DHT22;17777;48.770;8.944;2023-04-15T12:39:35;19.10;34.90
31129;DHT22;17777;48.770;8.944;2023-04-15T12:42:06;19.10;34.50
31129;DHT22;17777;48.770;8.944;2023-04-15T12:44:33;19.10;35.10
31129;DHT22;17777;48.770;8.944;2023-04-15T12:47:00;19.20;35.00
31129;DHT22;17777;48.770;8.944;2023-04-15T12:49:26;19.20;35.50
31129;DHT22;17777;48.770;8.944;2023-04-15T12:51:56;19.20;34.60
31129;DHT22;17777;48.770;8.944;2023-04-15T12:54:27;19.30;34.60
31129;DHT22;17777;48.770;8.944;2023-04-15T12:56:54;19.30;34.40
31129;DHT22;17777;48.770;8.944;2023-04-15T12:59:20;19.40;34.70
31129;DHT22;17777;48.770;8.944;2023-04-15T13:01:48;19.40;35.30
31129;DHT22;17777;48.770;8.944;2023-04-15T13:04:15;19.50;35.60
31129;DHT22;17777;48.770;8.944;2023-04-15T13:06:41;19.50;35.50
31129;DHT22;17777;48.770;8.944;2023-04-15T13:09:07;19.60;35.60
31129;DHT22;17777;48.770;8.944;2023-04-15T13:11:33;19.60;35.40
31129;DHT22;17777;48.770;8.944;2023-04-15T13:14:00;19.50;35.30
31129;DHT22;17777;48.770;8.944;2023-04-15T13:16:26;19.50;35.20
31129;DHT22;17777;48.770;8.944;2023-04-15T13:18:52;19.50;34.60
31129;DHT22;17777;48.770;8.944;2023-04-15T13:21:19;19.40;34.40
31129;DHT22;17777;48.770;8.944;2023-04-15T13:23:44;19.30;34.30
31129;DHT22;17777;48.770;8.944;2023-04-15T13:26:10;19.30;34.20
31129;DHT22;17777;48.770;8.944;2023-04-15T13:28:36;19.20;34.30
31129;DHT22;17777;48.770;8.944;2023-04-15T13:31:03;19.10;34.30
31129;DHT22;17777;48.770;8.944;2023-04-15T13:33:30;19.00;34.50
31129;DHT22;17777;48.770;8.944;2023-04-15T13:35:56;18.90;34.70
31129;DHT22;17777;48.770;8.944;2023-04-15T13:38:23;18.80;34.80
31129;DHT22;17777;48.770;8.944;2023-04-15T13:40:49;18.80;34.80
31129;DHT22;17777;48.770;8.944;2023-04-15T13:43:15;18.70;34.90
31129;DHT22;17777;48.770;8.944;2023-04-15T13:45:42;18.60;34.90
31129;DHT22;17777;48.770;8.944;2023-04-15T13:48:08;18.50;34.80
31129;DHT22;17777;48.770;8.944;2023-04-15T13:50:34;18.50;34.70
31129;DHT22;17777;48.770;8.944;2023-04-15T13:53:00;18.40;34.70
31129;DHT22;17777;48.770;8.944;2023-04-15T13:55:26;18.40;34.50
31129;DHT22;17777;48.770;8.944;2023-04-15T13:57:52;18.40;34.20
31129;DHT22;17777;48.770;8.944;2023-04-15T14:00:18;18.30;34.00
31129;DHT22;17777;48.770;8.944;2023-04-15T14:02:43;18.30;33.90
31129;DHT22;17777;48.770;8.944;2023-04-15T14:05:10;18.30;34.40
31129;DHT22;17777;48.770;8.944;2023-04-15T14:07:36;18.30;33.60
31129;DHT22;17777;48.770;8.944;2023-04-15T14:10:02;18.30;33.40
31129;DHT22;17777;48.770;8.944;2023-04-15T14:12:28;18.30;33.20
31129;DHT22;17777;48.770;8.944;2023-04-15T14:14:54;18.20;33.10
31129;DHT22;17777;48.770;8.944;2023-04-15T14:17:20;18.20;33.10
31129;DHT22;17777;48.770;8.944;2023-04-15T14:19:46;18.30;33.10
31129;DHT22;17777;48.770;8.944;2023-04-15T14:22:11;18.20;32.90
31129;DHT22;17777;48.770;8.944;2023-04-15T14:24:37;18.20;32.90
31129;DHT22;17777;48.770;8.944;2023-04-15T14:27:03;18.20;33.00
31129;DHT22;17777;48.770;8.944;2023-04-15T14:29:29;18.20;33.10
31129;DHT22;17777;48.770;8.944;2023-04-15T14:31:55;18.10;33.00
31129;DHT22;17777;48.770;8.944;2023-04-15T14:34:23;18.10;33.00
31129;DHT22;17777;48.770;8.944;2023-04-15T14:36:50;18.10;33.00
31129;DHT22;17777;48.770;8.944;2023-04-15T14:39:18;18.10;32.90
31129;DHT22;17777;48.770;8.944;2023-04-15T14:41:44;18.00;33.00
31129;DHT22;17777;48.770;8.944;2023-04-15T14:44:10;18.00;33.10
31129;DHT22;17777;48.770;8.944;2023-04-15T14:46:37;17.90;33.10
31129;DHT22;17777;48.770;8.944;2023-04-15T14:49:05;17.90;33.10
31129;DHT22;17777;48.770;8.944;2023-04-15T14:51:31;17.90;33.20
31129;DHT22;17777;48.770;8.944;2023-04-15T14:53:57;17.90;33.40
31129;DHT22;17777;48.770;8.944;2023-04-15T14:56:23;17.90;33.40
31129;DHT22;17777;48.770;8.944;2023-04-15T14:58:49;17.90;33.50
31129;DHT22;17777;48.770;8.944;2023-04-15T15:01:17;17.80;33.50
31129;DHT22;17777;48.770;8.944;2023-04-15T15:03:43;17.80;33.50
31129;DHT22;17777;48.770;8.944;2023-04-15T15:06:09;17.80;33.60
31129;DHT22;17777;48.770;8.944;2023-04-15T15:12:42;17.70;33.30
31129;DHT22;17777;48.770;8.944;2023-04-15T15:15:07;17.80;33.80
31129;DHT22;17777;48.770;8.944;2023-04-15T15:17:34;17.70;33.90
31129;DHT22;17777;48.770;8.944;2023-04-15T15:20:00;17.60;34.00
31129;DHT22;17777;48.770;8.944;2023-04-15T15:22:27;17.60;34.10
31129;DHT22;17777;48.770;8.944;2023-04-15T15:24:53;17.60;34.20
31129;DHT22;17777;48.770;8.944;2023-04-15T15:27:19;17.50;34.20
31129;DHT22;17777;48.770;8.944;2023-04-15T15:29:45;17.50;34.20
31129;DHT22;17777;48.770;8.944;2023-04-15T15:32:11;17.50;34.40
31129;DHT22;17777;48.770;8.944;2023-04-15T15:34:37;17.50;34.40
31129;DHT22;17777;48.770;8.944;2023-04-15T15:37:03;17.50;34.50
31129;DHT22;17777;48.770;8.944;2023-04-15T15:39:28;17.40;34.50
31129;DHT22;17777;48.770;8.944;2023-04-15T15:41:54;17.40;34.50
31129;DHT22;17777;48.770;8.944;2023-04-15T15:44:23;17.40;34.50
31129;DHT22;17777;48.770;8.944;2023-04-15T15:46:54;17.40;34.60
31129;DHT22;17777;48.770;8.944;2023-04-15T15:49:19;17.40;34.70
31129;DHT22;17777;48.770;8.944;2023-04-15T15:51:45;17.30;34.70
31129;DHT22;17777;48.770;8.944;2023-04-15T15:54:11;17.40;34.70
31129;DHT22;17777;48.770;8.944;2023-04-15T15:56:37;17.30;34.60
31129;DHT22;17777;48.770;8.944;2023-04-15T15:59:03;17.30;34.60
31129;DHT22;17777;48.770;8.944;2023-04-15T16:01:29;17.30;34.60
31129;DHT22;17777;48.770;8.944;2023-04-15T16:03:55;17.30;34.60
31129;DHT22;17777;48.770;8.944;2023-04-15T16:06:21;17.30;34.60
31129;DHT22;17777;48.770;8.944;2023-04-15T16:08:46;17.30;34.70
31129;DHT22;17777;48.770;8.944;2023-04-15T16:11:13;17.20;34.70